CheckWX is a tool to help pilots better visualize weather data.  It is not intended as a substitute for an official pre-flight weather briefing.

04:22:30 UTC

WMKJ METAR
Senai International Airport
Senai, Malaysia
Current

23 mins ago

WMKJ 100400Z VRB06KT 9999 FEW018 SCT140 BKN270 28/24 Q1011
Observed
Dec-10 @ 04:00 UTC
Wind
  • Variable at 6 KTS
Visibility
10,000+ meters
Flight Rules
VFR
Cloud Levels
  • Few at 1,800' AGL
  • Scattered at 14,000' AGL
  • Broken at 27,000' AGL
Temperature
28°C / 82°F
Dewpoint
24°C / 75°F
Heat Index
32°C / 89°F
Humidity
79%
Altimeter
29.85" Hg
Pressure
1010.92 hPa
Previous

1 hour ago

WMKJ 100300Z 01003KT 280V060 9999 FEW017CB BKN130 28/25 Q1012
Observed
Dec-10 @ 03:00 UTC
Wind
  • 010° at 3 KTS
Visibility
10,000+ meters
Flight Rules
VFR
Cloud Levels
  • Few at 1,700' AGL
  • Broken at 13,000' AGL
Temperature
28°C / 82°F
Dewpoint
25°C / 77°F
Heat Index
32°C / 90°F
Humidity
84%
Altimeter
29.88" Hg
Pressure
1011.92 hPa
Previous

2 hours ago

WMKJ 100200Z VRB03KT 9999 FEW018 BKN120 26/24 Q1012
Observed
Dec-10 @ 02:00 UTC
Wind
  • Variable at 3 KTS
Visibility
10,000+ meters
Flight Rules
VFR
Cloud Levels
  • Few at 1,800' AGL
  • Broken at 12,000' AGL
Temperature
26°C / 79°F
Dewpoint
24°C / 75°F
Humidity
89%
Altimeter
29.88" Hg
Pressure
1011.92 hPa